Time;durP1;ratioP1;P1;durP2;ratioP2;P2;SDS_P1;SDS_P2;PMS_P1;PMS_P2;Temp;Humidity;BMP_temperature;BMP_pressure;BME280_temperature;BME280_humidity;BME280_pressure;Samples;Min_cycle;Max_cycle;Signal;HPM_P1;HPM_P2
2021/03/23 00:01:06;;;;;;;1999.90;999.90;;;7.00;99.90;;;;;;4960233;29;20432;-84
2021/03/23 00:03:38;;;;;;;1999.90;999.90;;;7.00;99.90;;;;;;4942777;29;20731;-83
2021/03/23 00:06:05;;;;;;;1999.90;999.90;;;7.00;99.90;;;;;;4959946;29;20152;-83
2021/03/23 00:08:35;;;;;;;1999.90;999.90;;;7.00;99.90;;;;;;4942325;29;20239;-83
2021/03/23 00:11:27;;;;;;;1999.90;999.90;;;7.00;99.90;;;;;;4960390;29;20160;-83
2021/03/23 00:13:53;;;;;;;1999.90;999.90;;;7.00;99.90;;;;;;4929830;29;20203;-84
2021/03/23 00:16:22;;;;;;;1999.90;999.90;;;7.00;99.90;;;;;;4942909;29;20191;-83
2021/03/23 00:18:49;;;;;;;1999.90;999.90;;;7.00;99.90;;;;;;4942388;29;20172;-83
2021/03/23 00:21:15;;;;;;;1999.90;999.90;;;7.00;99.90;;;;;;4942743;29;20178;-83
2021/03/23 00:23:41;;;;;;;1999.90;999.90;;;7.00;99.90;;;;;;4959236;29;20750;-83
2021/03/23 00:26:08;;;;;;;1999.90;999.90;;;7.00;99.90;;;;;;4959453;29;20172;-83
2021/03/23 00:28:35;;;;;;;1999.90;999.90;;;7.00;99.90;;;;;;4959353;29;20164;-83
2021/03/23 00:31:01;;;;;;;1999.90;999.90;;;7.00;99.90;;;;;;4959449;29;20231;-83
2021/03/23 00:33:27;;;;;;;1999.90;999.90;;;7.00;99.90;;;;;;4942418;29;20203;-83
2021/03/23 00:35:56;;;;;;;1999.90;999.90;;;7.00;99.90;;;;;;4960165;29;20495;-83
2021/03/23 00:38:23;;;;;;;1999.90;999.90;;;7.00;99.90;;;;;;4942910;29;20591;-83
2021/03/23 00:40:50;;;;;;;1999.90;999.90;;;7.00;99.90;;;;;;4941227;29;20699;-83
2021/03/23 00:43:15;;;;;;;1999.90;999.90;;;7.10;99.90;;;;;;4959104;29;20267;-83
2021/03/23 00:45:43;;;;;;;1999.90;999.90;;;7.00;99.90;;;;;;4959939;29;20187;-83
2021/03/23 00:48:10;;;;;;;1999.90;999.90;;;7.00;99.90;;;;;;4960645;29;20171;-83
2021/03/23 00:50:36;;;;;;;1999.90;999.90;;;7.00;99.90;;;;;;4959800;29;20160;-83
2021/03/23 00:53:02;;;;;;;1999.90;999.90;;;7.00;99.90;;;;;;4942700;29;20543;-83
2021/03/23 00:55:28;;;;;;;1999.90;999.90;;;7.00;99.90;;;;;;4943154;29;20423;-83
2021/03/23 00:57:53;;;;;;;1999.90;999.90;;;6.90;99.90;;;;;;4960112;29;20498;-83
2021/03/23 01:00:20;;;;;;;1999.90;999.90;;;6.90;99.90;;;;;;4959746;29;20451;-83
2021/03/23 01:02:46;;;;;;;1999.90;999.90;;;6.90;99.90;;;;;;4959634;29;20163;-83
2021/03/23 01:05:15;;;;;;;1999.90;999.90;;;6.90;99.90;;;;;;4959554;29;20234;-83
2021/03/23 01:07:40;;;;;;;1999.90;999.90;;;6.90;99.90;;;;;;4959870;29;20407;-83
2021/03/23 01:10:08;;;;;;;1999.90;999.90;;;6.90;99.90;;;;;;4941746;29;20178;-83
2021/03/23 01:12:33;;;;;;;1999.90;999.90;;;6.80;99.90;;;;;;4942742;29;20548;-83
2021/03/23 01:14:59;;;;;;;1999.90;999.90;;;6.80;99.90;;;;;;4959403;29;20683;-83
2021/03/23 01:17:25;;;;;;;1999.90;999.90;;;6.80;99.90;;;;;;4942695;29;20454;-83
2021/03/23 01:19:50;;;;;;;1999.90;999.90;;;6.80;99.90;;;;;;4960100;29;20196;-83
2021/03/23 01:22:16;;;;;;;1999.90;999.90;;;6.70;99.90;;;;;;4942439;29;20164;-83
2021/03/23 01:24:42;;;;;;;1999.90;999.90;;;6.70;99.90;;;;;;4960106;29;20592;-83
2021/03/23 01:27:08;;;;;;;1999.90;999.90;;;6.80;99.90;;;;;;4943119;29;20179;-83
2021/03/23 01:29:34;;;;;;;1999.90;999.90;;;6.80;99.90;;;;;;4960003;29;20203;-83
2021/03/23 01:32:00;;;;;;;1999.90;999.90;;;6.70;99.90;;;;;;4959506;29;20164;-83
2021/03/23 01:34:27;;;;;;;1999.90;999.90;;;6.70;99.90;;;;;;4960159;23;20684;-87
2021/03/23 01:36:54;;;;;;;1999.90;999.90;;;6.80;99.90;;;;;;4937677;29;20188;-88
2021/03/23 01:39:25;;;;;;;1999.90;999.90;;;6.90;99.90;;;;;;4937726;29;20188;-87
2021/03/23 01:42:11;;;;;;;1999.90;999.90;;;6.80;99.90;;;;;;4919435;29;20161;-87
2021/03/23 01:45:04;;;;;;;1999.90;999.90;;;6.90;99.90;;;;;;4930154;29;20223;-87
2021/03/23 01:48:02;;;;;;;1999.90;999.90;;;6.90;99.90;;;;;;4905725;29;20172;-88
2021/03/23 01:50:34;;;;;;;1999.90;999.90;;;6.80;99.90;;;;;;4908718;29;20667;-87
2021/03/23 01:53:25;;;;;;;1999.90;999.90;;;6.90;99.90;;;;;;4936580;29;20175;-87
2021/03/23 01:56:11;;;;;;;1999.90;999.90;;;6.90;99.90;;;;;;4918739;29;20553;-87
2021/03/23 01:58:58;;;;;;;1999.90;999.90;;;6.80;99.90;;;;;;4919210;29;20204;-87
2021/03/23 02:01:50;;;;;;;1999.90;999.90;;;6.80;99.90;;;;;;4919118;29;20172;-87
2021/03/23 02:04:25;;;;;;;1999.90;999.90;;;6.70;99.90;;;;;;4920555;29;20192;-88
2021/03/23 02:07:03;;;;;;;1999.90;999.90;;;6.80;99.90;;;;;;4918513;29;20204;-88
2021/03/23 02:09:47;;;;;;;1999.90;999.90;;;6.70;99.90;;;;;;4919854;29;20184;-88
2021/03/23 02:12:49;;;;;;;1999.90;999.90;;;6.70;99.90;;;;;;4920385;29;20232;-88
2021/03/23 02:15:26;;;;;;;1999.90;999.90;;;6.80;99.90;;;;;;4945811;29;20767;-88
2021/03/23 02:18:29;;;;;;;;;;;;;;;;;;;;;
2021/03/23 02:21:46;;;;;;;1999.90;999.90;;;6.70;99.90;;;;;;4939098;29;20197;-88
2021/03/23 02:24:16;;;;;;;1999.90;999.90;;;6.60;99.90;;;;;;4909019;23;20236;-80
2021/03/23 02:26:43;;;;;;;1999.90;999.90;;;6.60;99.90;;;;;;4941261;29;20172;-80
2021/03/23 02:29:12;;;;;;;1999.90;999.90;;;6.70;99.90;;;;;;4940848;29;20200;-80
2021/03/23 02:31:42;;;;;;;1999.90;999.90;;;6.60;99.90;;;;;;4942571;29;20168;-80
2021/03/23 02:34:14;;;;;;;1999.90;999.90;;;6.60;99.90;;;;;;4940697;29;20702;-80
2021/03/23 02:36:42;;;;;;;1999.90;999.90;;;6.60;99.90;;;;;;4942748;29;20528;-80
2021/03/23 02:39:10;;;;;;;1999.90;999.90;;;6.60;99.90;;;;;;4943613;29;20287;-80
2021/03/23 02:41:36;;;;;;;1999.90;999.90;;;6.60;99.90;;;;;;4942858;29;20165;-80
2021/03/23 02:44:03;;;;;;;1999.90;999.90;;;6.60;99.90;;;;;;4942544;29;20189;-80
2021/03/23 02:46:29;;;;;;;1999.90;999.90;;;6.60;99.90;;;;;;4942225;29;20165;-80
2021/03/23 02:48:55;;;;;;;1999.90;999.90;;;6.60;99.90;;;;;;4942813;29;20184;-80
2021/03/23 02:51:20;;;;;;;1999.90;999.90;;;6.60;99.90;;;;;;4942994;29;20176;-80
2021/03/23 02:53:47;;;;;;;1999.90;999.90;;;6.60;99.90;;;;;;4942506;29;20195;-80
2021/03/23 02:56:13;;;;;;;1999.90;999.90;;;6.60;99.90;;;;;;4942776;29;20168;-80
2021/03/23 02:58:43;;;;;;;1999.90;999.90;;;6.60;99.90;;;;;;4943122;29;20169;-80
2021/03/23 03:01:09;;;;;;;1999.90;999.90;;;6.60;99.90;;;;;;4942251;29;20172;-80
2021/03/23 03:03:36;;;;;;;1999.90;999.90;;;6.60;99.90;;;;;;4942139;29;20189;-80
2021/03/23 03:06:02;;;;;;;1999.90;999.90;;;6.60;99.90;;;;;;4942098;29;20176;-80
2021/03/23 03:08:27;;;;;;;1999.90;999.90;;;6.60;99.90;;;;;;4942586;29;20187;-80
2021/03/23 03:10:53;;;;;;;1999.90;999.90;;;6.60;99.90;;;;;;4943191;29;20169;-80
2021/03/23 03:13:22;;;;;;;1999.90;999.90;;;6.60;99.90;;;;;;4925339;29;20203;-80
2021/03/23 03:15:50;;;;;;;1999.90;999.90;;;6.60;99.90;;;;;;4940842;29;20423;-80
2021/03/23 03:18:20;;;;;;;1999.90;999.90;;;6.60;99.90;;;;;;4942154;29;20532;-80
2021/03/23 03:20:46;;;;;;;1999.90;999.90;;;6.50;99.90;;;;;;4941968;29;20618;-80
2021/03/23 03:23:12;;;;;;;1999.90;999.90;;;6.50;99.90;;;;;;4941128;29;20227;-80
2021/03/23 03:25:40;;;;;;;1999.90;999.90;;;6.60;99.90;;;;;;4940407;29;20180;-80
2021/03/23 03:28:07;;;;;;;1999.90;999.90;;;6.60;99.90;;;;;;4942400;29;20448;-80
2021/03/23 03:30:35;;;;;;;1999.90;999.90;;;6.60;99.90;;;;;;4940229;29;20177;-80
2021/03/23 03:33:01;;;;;;;1999.90;999.90;;;6.60;99.90;;;;;;4941221;29;20599;-80
2021/03/23 03:35:29;;;;;;;1999.90;999.90;;;6.50;99.90;;;;;;4941699;29;20247;-80
2021/03/23 03:37:55;;;;;;;1999.90;999.90;;;6.60;99.90;;;;;;4942218;29;20164;-80
2021/03/23 03:40:33;;;;;;;1999.90;999.90;;;6.60;99.90;;;;;;4941653;29;20584;-80
2021/03/23 03:42:58;;;;;;;1999.90;999.90;;;6.60;99.90;;;;;;4941676;29;20503;-80
2021/03/23 03:45:26;;;;;;;1999.90;999.90;;;6.60;99.90;;;;;;4940278;29;20173;-80
2021/03/23 03:47:53;;;;;;;1999.90;999.90;;;6.60;99.90;;;;;;4941506;29;20667;-80
2021/03/23 03:50:21;;;;;;;1999.90;999.90;;;6.60;99.90;;;;;;4941311;29;20581;-80
2021/03/23 03:52:47;;;;;;;1999.90;999.90;;;6.60;99.90;;;;;;4940081;29;20187;-80
2021/03/23 03:55:14;;;;;;;1999.90;999.90;;;6.60;99.90;;;;;;4941141;29;20663;-80
2021/03/23 03:57:40;;;;;;;1999.90;999.90;;;6.70;99.90;;;;;;4941376;29;20239;-81
2021/03/23 04:00:07;;;;;;;1999.90;999.90;;;6.70;99.90;;;;;;4940023;29;20234;-80
2021/03/23 04:02:32;;;;;;;1999.90;999.90;;;6.60;99.90;;;;;;4939838;29;20164;-80
2021/03/23 04:04:58;;;;;;;1999.90;999.90;;;6.60;99.90;;;;;;4941151;29;20188;-80
2021/03/23 04:07:24;;;;;;;1999.90;999.90;;;6.60;99.90;;;;;;4941146;29;20161;-80
2021/03/23 04:09:49;;;;;;;1999.90;999.90;;;6.60;99.90;;;;;;4939699;29;20173;-80
2021/03/23 04:12:15;;;;;;;1999.90;999.90;;;6.70;99.90;;;;;;4940644;29;20184;-80
2021/03/23 04:14:41;;;;;;;1999.90;999.90;;;6.70;99.90;;;;;;4940741;29;20196;-80
2021/03/23 04:17:06;;;;;;;1999.90;999.90;;;6.60;99.90;;;;;;4939261;29;20181;-80
2021/03/23 04:19:32;;;;;;;1999.90;999.90;;;6.70;99.90;;;;;;4939024;29;20220;-80
2021/03/23 04:21:58;;;;;;;1999.90;999.90;;;6.60;99.90;;;;;;4940605;29;20161;-80
2021/03/23 04:24:24;;;;;;;1999.90;999.90;;;6.60;99.90;;;;;;4940084;29;20196;-80
2021/03/23 04:26:50;;;;;;;1999.90;999.90;;;6.60;99.90;;;;;;4939076;29;20168;-80
2021/03/23 04:29:16;;;;;;;1999.90;999.90;;;6.60;99.90;;;;;;4940646;29;20165;-80
2021/03/23 04:31:43;;;;;;;1999.90;999.90;;;6.50;99.90;;;;;;4940389;29;20172;-80
2021/03/23 04:34:11;;;;;;;1999.90;999.90;;;6.40;99.90;;;;;;4940041;29;20251;-80
2021/03/23 04:36:37;;;;;;;1999.90;999.90;;;6.50;99.90;;;;;;4939635;29;20172;-80
2021/03/23 04:39:12;;;;;;;1999.90;999.90;;;6.50;99.90;;;;;;4940176;29;20164;-80
2021/03/23 04:41:39;;;;;;;1999.90;999.90;;;6.50;99.90;;;;;;4940848;29;20586;-80
2021/03/23 04:44:07;;;;;;;1999.90;999.90;;;6.50;99.90;;;;;;4939666;29;20190;-80
2021/03/23 04:46:33;;;;;;;1999.90;999.90;;;6.40;99.90;;;;;;4940343;29;20164;-80
2021/03/23 04:48:59;;;;;;;1999.90;999.90;;;6.40;99.90;;;;;;4939566;29;20166;-80
2021/03/23 04:51:28;;;;;;;1999.90;999.90;;;6.40;99.90;;;;;;4940052;29;20172;-80
2021/03/23 04:54:12;;;;;;;1999.90;999.90;;;6.40;99.90;;;;;;4938945;29;20801;-81
2021/03/23 04:56:40;;;;;;;1999.90;999.90;;;6.40;99.90;;;;;;4939449;29;20177;-80
2021/03/23 04:59:07;;;;;;;1999.90;999.90;;;6.40;99.90;;;;;;4940018;29;20203;-80
2021/03/23 05:01:34;;;;;;;1999.90;999.90;;;6.40;99.90;;;;;;4940557;29;20259;-80
2021/03/23 05:04:03;;;;;;;1999.90;999.90;;;6.40;99.90;;;;;;4940301;29;20212;-80
2021/03/23 05:06:30;;;;;;;1999.90;999.90;;;6.40;99.90;;;;;;4939402;29;20712;-80
2021/03/23 05:08:56;;;;;;;1999.90;999.90;;;6.40;99.90;;;;;;4940802;29;20200;-80
2021/03/23 05:11:27;;;;;;;1999.90;999.90;;;6.40;99.90;;;;;;4940536;29;20247;-80
2021/03/23 05:13:53;;;;;;;1999.90;999.90;;;6.40;99.90;;;;;;4940267;29;20188;-80
2021/03/23 05:16:19;;;;;;;1999.90;999.90;;;6.50;99.90;;;;;;4939663;29;20175;-80
2021/03/23 05:18:45;;;;;;;1999.90;999.90;;;6.50;99.90;;;;;;4940248;29;20472;-80
2021/03/23 05:21:11;;;;;;;1999.90;999.90;;;6.50;99.90;;;;;;4940327;29;20421;-80
2021/03/23 05:23:38;;;;;;;1999.90;999.90;;;6.60;99.90;;;;;;4939961;29;20227;-80
2021/03/23 05:26:05;;;;;;;1999.90;999.90;;;6.50;99.90;;;;;;4939874;29;20412;-80
2021/03/23 05:28:31;;;;;;;1999.90;999.90;;;6.60;99.90;;;;;;4940420;29;20176;-80
2021/03/23 05:30:57;;;;;;;1999.90;999.90;;;6.50;99.90;;;;;;4940735;29;20192;-80
2021/03/23 05:33:25;;;;;;;1999.90;999.90;;;6.50;99.90;;;;;;4939750;29;20605;-80
2021/03/23 05:35:53;;;;;;;1999.90;999.90;;;6.50;99.90;;;;;;4940005;29;20191;-80
2021/03/23 05:38:19;;;;;;;1999.90;999.90;;;6.50;99.90;;;;;;4940233;29;20177;-80
2021/03/23 05:40:49;;;;;;;1999.90;999.90;;;6.50;99.90;;;;;;4940003;29;20203;-80
2021/03/23 05:43:15;;;;;;;1999.90;999.90;;;6.50;99.90;;;;;;4938870;29;20572;-80
2021/03/23 05:45:45;;;;;;;1999.90;999.90;;;6.50;99.90;;;;;;4939036;29;20183;-81
2021/03/23 05:48:23;;;;;;;1999.90;999.90;;;6.60;99.90;;;;;;4938927;29;20772;-80
2021/03/23 05:51:12;;;;;;;1999.90;999.90;;;6.60;99.90;;;;;;4939740;29;20182;-80
2021/03/23 05:53:44;;;;;;;1999.90;999.90;;;6.60;99.90;;;;;;4933756;29;20215;-80
2021/03/23 05:56:15;;;;;;;1999.90;999.90;;;6.60;99.90;;;;;;4942087;29;20161;-80
2021/03/23 05:58:49;;;;;;;1999.90;999.90;;;6.70;99.90;;;;;;4943773;29;20621;-80
2021/03/23 06:01:27;;;;;;;1999.90;999.90;;;6.70;99.90;;;;;;4944205;29;20167;-80
2021/03/23 06:04:14;;;;;;;1999.90;999.90;;;6.80;99.90;;;;;;4942034;29;20188;-80
2021/03/23 06:07:10;;;;;;;1999.90;999.90;;;6.70;99.90;;;;;;4943318;29;20156;-80
2021/03/23 06:09:39;;;;;;;1999.90;999.90;;;6.70;99.90;;;;;;4940673;29;20188;-80
2021/03/23 06:12:27;;;;;;;1999.90;999.90;;;6.70;99.90;;;;;;4943252;29;20267;-80
2021/03/23 06:15:12;;;;;;;1999.90;999.90;;;6.70;99.90;;;;;;4941833;29;20196;-80
2021/03/23 06:18:03;;;;;;;1999.90;999.90;;;6.60;99.90;;;;;;4942941;29;20255;-80
2021/03/23 06:20:29;;;;;;;1999.90;999.90;;;6.70;99.90;;;;;;4943016;29;20185;-80
2021/03/23 06:23:12;;;;;;;1999.90;999.90;;;6.70;99.90;;;;;;4943161;29;20173;-80
2021/03/23 06:25:47;;;;;;;1999.90;999.90;;;6.70;99.90;;;;;;4941885;29;20215;-80
2021/03/23 06:28:27;;;;;;;1999.90;999.90;;;6.70;99.90;;;;;;4942578;29;20488;-80
2021/03/23 06:31:14;;;;;;;1999.90;999.90;;;6.70;99.90;;;;;;4942188;29;20552;-81
2021/03/23 06:33:40;;;;;;;1999.90;999.90;;;6.80;99.90;;;;;;4942974;29;20192;-80
2021/03/23 06:36:24;;;;;;;1999.90;999.90;;;6.80;99.90;;;;;;4942533;29;20227;-81
2021/03/23 06:38:50;;;;;;;1999.90;999.90;;;6.80;99.90;;;;;;4942512;29;20228;-80
2021/03/23 06:41:16;;;;;;;1999.90;999.90;;;6.90;99.90;;;;;;4941341;29;20584;-80
2021/03/23 06:43:55;;;;;;;1999.90;999.90;;;6.90;99.90;;;;;;4942737;29;20537;-80
2021/03/23 06:46:31;;;;;;;1999.90;999.90;;;7.00;99.90;;;;;;4941249;29;20427;-80
2021/03/23 06:49:00;;;;;;;1999.90;999.90;;;7.00;99.90;;;;;;4941148;29;20172;-80
2021/03/23 06:51:26;;;;;;;1999.90;999.90;;;7.00;99.90;;;;;;4942328;29;20161;-80
2021/03/23 06:53:52;;;;;;;1999.90;999.90;;;7.00;99.90;;;;;;4941143;29;20195;-80
2021/03/23 06:56:20;;;;;;;1999.90;999.90;;;7.00;99.90;;;;;;4942633;29;20173;-80
2021/03/23 06:58:47;;;;;;;1999.90;999.90;;;7.00;99.90;;;;;;4941106;29;20260;-81
2021/03/23 07:01:17;;;;;;;1999.90;999.90;;;7.00;99.90;;;;;;4942499;29;20224;-80
2021/03/23 07:03:55;;;;;;;1999.90;999.90;;;7.10;99.90;;;;;;4942751;29;20212;-81
2021/03/23 07:06:24;;;;;;;1999.90;999.90;;;7.20;99.90;;;;;;4940874;29;20184;-80
2021/03/23 07:09:20;;;;;;;1999.90;999.90;;;7.20;99.90;;;;;;4941172;29;20165;-81
2021/03/23 07:11:57;;;;;;;1999.90;999.90;;;7.20;99.90;;;;;;4928266;29;20184;-80
2021/03/23 07:14:27;;;;;;;1999.90;999.90;;;7.30;99.90;;;;;;4941859;29;20724;-81
2021/03/23 07:17:08;;;;;;;1999.90;999.90;;;7.30;99.90;;;;;;4941282;29;20255;-81
2021/03/23 07:19:50;;;;;;;1999.90;999.90;;;7.30;99.90;;;;;;4942452;29;20180;-81
2021/03/23 07:22:40;;;;;;;1999.90;999.90;;;7.30;99.90;;;;;;4942740;29;20172;-81
2021/03/23 07:25:41;;;;;;;1999.90;999.90;;;7.30;99.90;;;;;;4942518;29;20211;-80
2021/03/23 07:28:31;;;;;;;1999.90;999.90;;;7.30;99.90;;;;;;4942370;29;20175;-80
2021/03/23 07:31:12;;;;;;;1999.90;999.90;;;7.40;99.90;;;;;;4941946;29;20227;-80
2021/03/23 07:33:58;;;;;;;1999.90;999.90;;;7.50;99.90;;;;;;4941908;29;20184;-81
2021/03/23 07:36:54;;;;;;;1999.90;999.90;;;7.50;99.90;;;;;;4941157;29;20172;-81
2021/03/23 07:39:23;;;;;;;1999.90;999.90;;;7.50;99.90;;;;;;4942182;29;20188;-81
2021/03/23 07:41:51;;;;;;;1999.90;999.90;;;7.60;99.90;;;;;;4940622;29;20224;-81
2021/03/23 07:44:39;;;;;;;1999.90;999.90;;;7.70;99.90;;;;;;4940359;29;20546;-81
2021/03/23 07:47:44;;;;;;;1999.90;999.90;;;7.80;99.90;;;;;;4941068;29;20172;-81
2021/03/23 07:50:15;;;;;;;1999.90;999.90;;;7.80;99.90;;;;;;4942076;29;20529;-81
2021/03/23 07:52:50;;;;;;;1999.90;999.90;;;7.80;99.90;;;;;;4941260;29;20172;-81
2021/03/23 07:55:24;;;;;;;1999.90;999.90;;;7.90;99.90;;;;;;4940768;29;20191;-81
2021/03/23 07:57:59;;;;;;;1999.90;999.90;;;7.90;99.90;;;;;;4940152;29;20176;-80
2021/03/23 08:01:07;;;;;;;1999.90;999.90;;;8.00;99.90;;;;;;4941134;29;20191;-81
2021/03/23 08:03:39;;;;;;;1999.90;999.90;;;8.00;99.90;;;;;;4940168;29;20275;-80
2021/03/23 08:06:25;;;;;;;1999.90;999.90;;;8.10;99.90;;;;;;4940124;29;20183;-81
2021/03/23 08:09:18;;;;;;;1999.90;999.90;;;8.20;99.90;;;;;;4939633;29;20220;-81
2021/03/23 08:11:56;;;;;;;1999.90;999.90;;;8.30;99.90;;;;;;4939552;29;20188;-80
2021/03/23 08:14:40;;;;;;;1999.90;999.90;;;8.30;99.90;;;;;;4941559;29;20188;-79
2021/03/23 08:17:44;;;;;;;1999.90;999.90;;;8.40;99.90;;;;;;4939721;29;20160;-81
2021/03/23 08:20:28;;;;;;;1999.90;999.90;;;8.30;99.90;;;;;;4937206;29;20204;-81
2021/03/23 08:23:35;;;;;;;1999.90;999.90;;;8.30;99.90;;;;;;4939693;29;20568;-81
2021/03/23 08:26:19;;;;;;;1999.90;999.90;;;8.30;99.90;;;;;;4940334;29;20250;-80
2021/03/23 08:28:49;;;;;;;1999.90;999.90;;;8.40;99.90;;;;;;4939513;29;20617;-81
2021/03/23 08:31:36;;;;;;;1999.90;999.90;;;8.40;99.90;;;;;;4939746;29;20192;-81
2021/03/23 08:34:21;;;;;;;1999.90;999.90;;;8.40;99.90;;;;;;4940766;29;20191;-80
2021/03/23 08:37:18;;;;;;;1999.90;999.90;;;8.50;99.90;;;;;;4940355;29;20180;-80
2021/03/23 08:40:03;;;;;;;1999.90;999.90;;;8.50;99.90;;;;;;4939897;29;20219;-79
2021/03/23 08:42:36;;;;;;;1999.90;999.90;;;8.40;99.90;;;;;;4942012;29;20141;-79
2021/03/23 08:45:42;;;;;;;1999.90;999.90;;;8.50;99.90;;;;;;4940334;29;20263;-80
2021/03/23 08:48:59;;;;;;;1999.90;999.90;;;8.50;99.90;;;;;;4939942;29;20239;-80
2021/03/23 08:51:31;;;;;;;1999.90;999.90;;;8.70;99.90;;;;;;4908752;29;20184;-80
2021/03/23 08:54:06;;;;;;;1999.90;999.90;;;8.70;99.90;;;;;;4940983;29;20628;-81
2021/03/23 08:56:46;;;;;;;1999.90;999.90;;;8.80;99.90;;;;;;4940945;29;20216;-80
2021/03/23 08:59:33;;;;;;;1999.90;999.90;;;8.80;99.90;;;;;;4940989;29;20160;-81
2021/03/23 09:02:21;;;;;;;1999.90;999.90;;;8.90;99.90;;;;;;4941400;29;20169;-80
2021/03/23 09:04:57;;;;;;;1999.90;999.90;;;9.00;99.90;;;;;;4929446;29;20220;-80
2021/03/23 09:07:27;;;;;;;1999.90;999.90;;;9.00;99.90;;;;;;4941219;29;20180;-80
2021/03/23 09:09:54;;;;;;;1999.90;999.90;;;9.00;99.90;;;;;;4940275;29;20157;-80
2021/03/23 09:12:41;;;;;;;1999.90;999.90;;;9.10;99.90;;;;;;4938506;29;20283;-80
2021/03/23 09:15:10;;;;;;;1999.90;999.90;;;9.10;99.90;;;;;;4938282;29;20223;-80
2021/03/23 09:17:50;;;;;;;1999.90;999.90;;;9.10;99.90;;;;;;4938488;29;20184;-80
2021/03/23 09:20:31;;;;;;;1999.90;999.90;;;9.30;99.90;;;;;;4939478;29;20187;-80
2021/03/23 09:23:21;;;;;;;1999.90;999.90;;;9.30;99.90;;;;;;4939426;29;20536;-80
2021/03/23 09:25:54;;;;;;;1999.90;999.90;;;9.40;99.90;;;;;;4938259;29;20188;-80
2021/03/23 09:28:29;;;;;;;1999.90;999.90;;;9.50;99.90;;;;;;4938595;29;20208;-79
2021/03/23 09:30:58;;;;;;;1999.90;999.90;;;9.60;99.90;;;;;;4941821;29;20203;-80
2021/03/23 09:33:23;;;;;;;1999.90;999.90;;;9.60;99.90;;;;;;4943570;29;20534;-80
2021/03/23 09:36:06;;;;;;;1999.90;999.90;;;9.70;99.90;;;;;;4942446;29;20203;-80
2021/03/23 09:38:43;;;;;;;1999.90;999.90;;;9.80;99.90;;;;;;4942523;29;20521;-80
2021/03/23 09:41:34;;;;;;;1999.90;999.90;;;9.80;99.90;;;;;;4943542;29;20221;-81
2021/03/23 09:44:06;;;;;;;1999.90;999.90;;;10.00;99.90;;;;;;4942270;29;20192;-80
2021/03/23 09:46:35;;;;;;;1999.90;999.90;;;10.10;99.90;;;;;;4942292;29;20695;-80
2021/03/23 09:49:11;;;;;;;1999.90;999.90;;;10.30;99.90;;;;;;4942050;29;20176;-80
2021/03/23 09:52:15;;;;;;;1999.90;999.90;;;10.40;99.90;;;;;;4974203;23;20297;-88
2021/03/23 09:55:01;;;;;;;1999.90;999.90;;;10.50;99.90;;;;;;4960719;28;20568;-88
2021/03/23 09:57:56;;;;;;;1999.90;999.90;;;10.50;99.90;;;;;;4978518;28;20204;-88
2021/03/23 10:00:31;;;;;;;1999.90;999.90;;;10.50;99.90;;;;;;4976418;28;20301;-88
2021/03/23 10:03:45;;;;;;;1999.90;999.90;;;10.50;99.90;;;;;;4903688;29;20654;-88
2021/03/23 10:06:59;;;;;;;1999.90;999.90;;;10.60;99.90;;;;;;4917171;29;20683;-88
2021/03/23 10:09:41;;;;;;;1999.90;999.90;;;10.60;99.90;;;;;;4903580;29;20181;-88
2021/03/23 10:12:44;;;;;;;1999.90;999.90;;;10.70;99.90;;;;;;4964813;28;20183;-88
2021/03/23 10:15:51;;;;;;;1999.90;999.90;;;10.70;99.90;;;;;;4969664;28;20268;-87
2021/03/23 10:18:39;;;;;;;1999.90;999.90;;;10.80;99.90;;;;;;4978054;28;20175;-87
2021/03/23 10:21:16;;;;;;;1999.90;999.90;;;11.00;99.90;;;;;;4978974;28;20187;-87
2021/03/23 10:24:00;;;;;;;1999.90;999.90;;;11.20;99.90;;;;;;4978828;28;20159;-88
2021/03/23 10:26:36;;;;;;;1999.90;999.90;;;11.50;99.90;;;;;;4978452;28;20193;-88
2021/03/23 10:29:43;;;;;;;1999.90;999.90;;;11.70;99.90;;;;;;4978462;28;20305;-88
2021/03/23 10:32:34;;;;;;;1999.90;999.90;;;11.80;99.90;;;;;;4942380;28;20193;-88
2021/03/23 10:35:28;;;;;;;1999.90;999.90;;;11.80;99.50;;;;;;4975806;28;20194;-88
2021/03/23 10:38:23;;;;;;;1999.90;999.90;;;11.80;99.90;;;;;;4961424;28;20171;-88
2021/03/23 10:40:53;;;;;;;1999.90;999.90;;;12.00;99.80;;;;;;4977711;28;20194;-88
2021/03/23 10:43:50;;;;;;;1999.90;999.90;;;12.10;97.10;;;;;;4976663;28;20172;-88
2021/03/23 10:46:47;;;;;;;1999.90;999.90;;;12.10;95.00;;;;;;4932345;28;20258;-88
2021/03/23 10:49:46;;;;;;;1999.90;999.90;;;12.20;96.50;;;;;;4958870;28;20222;-88
2021/03/23 10:52:32;;;;;;;1999.90;999.90;;;12.30;97.40;;;;;;4959788;28;20690;-88
2021/03/23 10:55:37;;;;;;;1999.90;999.90;;;12.40;97.20;;;;;;4977322;28;20206;-88
2021/03/23 10:58:31;;;;;;;1999.90;999.90;;;12.60;97.90;;;;;;4960651;28;20171;-88
2021/03/23 11:01:20;;;;;;;1999.90;999.90;;;12.60;98.50;;;;;;4976999;28;20237;-88
2021/03/23 11:04:25;;;;;;;1999.90;999.90;;;12.80;95.20;;;;;;4977868;28;20270;-88
2021/03/23 11:07:38;;;;;;;1999.90;999.90;;;12.90;91.90;;;;;;4959408;28;20178;-88
2021/03/23 11:16:51;;;;;;;1999.90;999.90;;;13.60;85.30;;;;;;4939653;29;20177;-88
2021/03/23 11:19:31;;;;;;;1999.90;999.90;;;13.60;71.30;;;;;;4918577;28;20277;-88
2021/03/23 11:22:10;;;;;;;1999.90;999.90;;;13.60;70.80;;;;;;4960480;28;20162;-88
2021/03/23 11:24:44;;;;;;;1999.90;999.90;;;13.60;55.60;;;;;;4976539;28;20206;-88
2021/03/23 11:27:26;;;;;;;1999.90;999.90;;;13.60;64.20;;;;;;4927476;28;20595;-88
2021/03/23 11:30:19;;;;;;;1999.90;999.90;;;13.70;55.10;;;;;;4960511;28;20233;-88
2021/03/23 11:33:16;;;;;;;1999.90;999.90;;;13.70;49.70;;;;;;4959158;28;20171;-88
2021/03/23 11:36:07;;;;;;;1999.90;999.90;;;13.60;57.10;;;;;;4976464;28;20203;-88
2021/03/23 11:38:42;;;;;;;1999.90;999.90;;;13.40;50.40;;;;;;4960026;28;20183;-88
2021/03/23 11:42:01;;;;;;;;;;;;;;;;;;;;;
2021/03/23 11:44:56;;;;;;;1999.90;999.90;;;13.10;41.20;;;;;;4976015;28;20667;-88
2021/03/23 11:47:42;;;;;;;1999.90;999.90;;;12.90;47.90;;;;;;4965446;28;20163;-88
2021/03/23 11:50:22;;;;;;;1999.90;999.90;;;12.90;41.30;;;;;;4976891;28;20202;-88
2021/03/23 11:53:03;;;;;;;1999.90;999.90;;;12.90;44.40;;;;;;4976170;28;20186;-87
2021/03/23 11:55:44;;;;;;;1999.90;999.90;;;13.00;44.70;;;;;;4959766;28;20194;-88
2021/03/23 11:58:31;;;;;;;1999.90;999.90;;;13.30;46.20;;;;;;4959049;28;20191;-88
2021/03/23 12:01:02;;;;;;;1999.90;999.90;;;13.60;45.10;;;;;;4976976;28;20169;-88
2021/03/23 12:03:40;;;;;;;1999.90;999.90;;;14.00;36.70;;;;;;4959812;28;20227;-87
2021/03/23 12:06:13;;;;;;;1999.90;999.90;;;14.20;26.50;;;;;;4944245;28;20580;-88
2021/03/23 12:09:39;;;;;;;1999.90;999.90;;;14.40;26.20;;;;;;4975914;28;20163;-87
2021/03/23 12:16:31;;;;;;;1999.90;999.90;;;15.20;22.30;;;;;;4978562;28;20230;-88
2021/03/23 12:19:18;;;;;;;;;;;;;;;;;;;;;
2021/03/23 12:21:59;;;;;;;1999.90;999.90;;;15.90;17.90;;;;;;4880201;29;20402;-88
2021/03/23 12:24:46;;;;;;;1999.90;999.90;;;15.90;13.10;;;;;;4936460;28;20453;-87
2021/03/23 12:27:21;;;;;;;1999.90;999.90;;;15.80;16.50;;;;;;4961717;28;20418;-88
2021/03/23 12:30:05;;;;;;;1999.90;999.90;;;15.50;12.30;;;;;;4959621;28;20457;-87
2021/03/23 12:36:56;;;;;;;1999.90;999.90;;;14.60;14.80;;;;;;4908425;29;20437;-88
2021/03/23 12:40:11;;;;;;;1999.90;999.90;;;14.20;17.70;;;;;;4885778;29;20413;-88
2021/03/23 12:42:49;;;;;;;1999.90;999.90;;;13.90;22.50;;;;;;4925836;28;20411;-88
2021/03/23 12:45:31;;;;;;;1999.90;999.90;;;13.90;24.10;;;;;;4958232;28;20461;-87
2021/03/23 12:48:09;;;;;;;1999.90;999.90;;;13.70;23.00;;;;;;4958745;28;20205;-88
2021/03/23 12:50:39;;;;;;;1999.90;999.90;;;13.60;22.10;;;;;;4958856;28;20210;-87
2021/03/23 12:53:20;;;;;;;1999.90;999.90;;;13.50;22.70;;;;;;4959016;28;20430;-87
2021/03/23 12:55:56;;;;;;;1999.90;999.90;;;13.70;24.80;;;;;;4959028;28;20464;-87
2021/03/23 12:58:35;;;;;;;1999.90;999.90;;;14.00;24.20;;;;;;4959523;28;20533;-88
2021/03/23 13:01:17;;;;;;;1999.90;999.90;;;14.40;22.60;;;;;;4959479;28;20163;-88
2021/03/23 13:03:47;;;;;;;1999.90;999.90;;;14.80;25.60;;;;;;4959278;28;20175;-88
2021/03/23 13:07:02;;;;;;;1999.90;999.90;;;14.90;23.70;;;;;;4958291;28;20417;-88
2021/03/23 13:10:12;;;;;;;1999.90;999.90;;;14.70;20.50;;;;;;4975657;28;20755;-88
2021/03/23 13:13:24;;;;;;;1999.90;999.90;;;14.50;20.30;;;;;;4955149;28;20426;-88